createdAt,value
2019-02-26T00:01:18.498Z,882.10
2019-02-26T00:03:48.330Z,854.83
2019-02-26T00:06:20.736Z,875.57
2019-02-26T00:08:54.127Z,858.13
2019-02-26T00:11:26.724Z,840.93
2019-02-26T00:13:59.024Z,859.70
2019-02-26T00:16:35.377Z,847.13
2019-02-26T00:19:09.645Z,870.50
2019-02-26T00:21:40.386Z,867.40
2019-02-26T00:24:12.936Z,864.63
2019-02-26T00:26:45.145Z,856.87
2019-02-26T00:29:16.335Z,853.37
2019-02-26T00:31:49.005Z,859.80
2019-02-26T00:34:20.331Z,859.53
2019-02-26T00:36:51.504Z,854.90
2019-02-26T00:39:23.382Z,845.37
2019-02-26T00:41:55.748Z,856.23
2019-02-26T00:44:29.881Z,846.43
2019-02-26T00:47:02.575Z,830.13
2019-02-26T00:49:33.758Z,833.73
2019-02-26T00:52:06.394Z,866.90
2019-02-26T00:54:39.149Z,874.27
2019-02-26T00:57:11.535Z,832.37
2019-02-26T00:59:45.928Z,836.03
2019-02-26T01:02:17.125Z,860.10
2019-02-26T01:04:49.247Z,859.23
2019-02-26T01:07:21.460Z,851.17
2019-02-26T01:09:56.895Z,857.87
2019-02-26T01:12:28.323Z,841.90
2019-02-26T01:15:02.591Z,847.17
2019-02-26T01:17:35.651Z,847.53
2019-02-26T01:20:09.394Z,837.13
2019-02-26T01:22:42.896Z,841.40
2019-02-26T01:25:15.863Z,853.20
2019-02-26T01:27:51.067Z,849.07
2019-02-26T01:30:25.833Z,820.73
2019-02-26T01:32:57.573Z,850.00
2019-02-26T01:35:28.975Z,823.33
2019-02-26T01:38:00.718Z,837.37
2019-02-26T01:40:31.838Z,834.10
2019-02-26T01:43:05.530Z,863.97
2019-02-26T01:45:37.714Z,852.57
2019-02-26T01:48:11.193Z,850.47
2019-02-26T01:50:41.797Z,539.27
2019-02-26T01:53:14.517Z,590.67
2019-02-26T01:55:48.306Z,602.83
2019-02-26T01:58:19.634Z,617.63
2019-02-26T02:00:50.732Z,634.60
2019-02-26T02:03:23.007Z,680.77
2019-02-26T02:05:54.915Z,656.17
2019-02-26T02:08:26.195Z,639.53
2019-02-26T02:10:59.835Z,657.43
2019-02-26T02:13:30.665Z,650.10
2019-02-26T02:16:04.542Z,657.57
2019-02-26T02:18:35.721Z,668.43
2019-02-26T02:21:07.218Z,655.13
2019-02-26T02:23:38.302Z,677.03
2019-02-26T02:26:11.606Z,688.03
2019-02-26T02:28:43.020Z,643.67
2019-02-26T02:31:14.144Z,685.17
2019-02-26T02:33:45.233Z,679.20
2019-02-26T02:36:17.618Z,674.30
2019-02-26T02:38:50.397Z,668.57
2019-02-26T02:41:21.508Z,674.30
2019-02-26T02:43:52.929Z,681.23
2019-02-26T02:46:24.054Z,672.13
2019-02-26T02:48:56.098Z,657.73
2019-02-26T02:51:28.154Z,693.97
2019-02-26T02:54:01.000Z,672.40
2019-02-26T02:56:33.379Z,681.03
2019-02-26T02:59:08.905Z,688.50
2019-02-26T03:01:39.805Z,675.30
2019-02-26T03:04:14.768Z,669.60
2019-02-26T03:06:46.345Z,677.80
2019-02-26T03:09:19.667Z,675.13
2019-02-26T03:11:52.981Z,664.57
2019-02-26T03:14:24.995Z,692.27
2019-02-26T03:16:56.244Z,678.23
2019-02-26T03:19:29.483Z,666.00
2019-02-26T03:22:00.424Z,682.83
2019-02-26T03:24:33.852Z,656.77
2019-02-26T03:27:04.345Z,679.00
2019-02-26T03:29:36.496Z,657.40
2019-02-26T03:32:07.612Z,677.47
2019-02-26T03:34:38.798Z,662.37
2019-02-26T03:37:11.167Z,665.67
2019-02-26T03:39:42.408Z,654.50
2019-02-26T03:42:16.186Z,690.20
2019-02-26T03:44:47.034Z,677.73
2019-02-26T03:47:18.867Z,686.57
2019-02-26T03:49:50.426Z,698.90
2019-02-26T03:52:21.610Z,705.57
2019-02-26T03:54:52.786Z,684.20
2019-02-26T03:57:24.821Z,702.33
2019-02-26T03:59:56.265Z,700.03
2019-02-26T04:02:27.454Z,704.33
2019-02-26T04:05:00.759Z,698.07
2019-02-26T04:07:35.848Z,695.90
2019-02-26T04:10:06.627Z,693.97
2019-02-26T04:12:41.826Z,668.67
2019-02-26T04:15:13.528Z,700.90
2019-02-26T04:17:44.629Z,661.20
2019-02-26T04:20:17.229Z,672.73
2019-02-26T04:22:52.401Z,699.10
2019-02-26T04:26:15.910Z,669.00
2019-02-26T04:29:06.488Z,631.07
2019-02-26T04:32:43.601Z,631.10
2019-02-26T04:36:02.512Z,590.37
2019-02-26T04:39:48.828Z,563.70
2019-02-26T04:43:08.283Z,575.40
2019-02-26T04:46:37.384Z,588.17
2019-02-26T04:49:09.360Z,598.87
2019-02-26T04:51:44.489Z,629.93
2019-02-26T04:54:17.524Z,687.13
2019-02-26T04:56:48.038Z,678.87
2019-02-26T04:59:19.947Z,678.40
2019-02-26T05:01:54.909Z,682.30
2019-02-26T05:04:24.075Z,671.40
2019-02-26T05:06:55.684Z,681.63
2019-02-26T05:09:27.943Z,693.83
2019-02-26T05:12:00.170Z,654.60
2019-02-26T05:14:31.824Z,682.13
2019-02-26T05:17:03.388Z,663.60
2019-02-26T05:19:36.560Z,677.37
2019-02-26T05:22:08.472Z,670.47
2019-02-26T05:24:42.395Z,663.03
2019-02-26T05:27:22.692Z,676.10
2019-02-26T05:29:54.707Z,649.43
2019-02-26T05:32:29.430Z,660.83
2019-02-26T05:34:59.536Z,619.37
2019-02-26T05:37:32.592Z,615.17
2019-02-26T05:40:06.536Z,637.80
2019-02-26T05:42:37.678Z,645.50
2019-02-26T05:45:09.616Z,646.43
2019-02-26T05:47:42.988Z,647.53
2019-02-26T05:50:16.727Z,674.03
2019-02-26T05:52:50.397Z,646.83
2019-02-26T05:55:23.689Z,624.20
2019-02-26T05:57:56.276Z,629.97
2019-02-26T06:00:32.339Z,664.97
2019-02-26T06:03:03.066Z,680.43
2019-02-26T06:05:35.931Z,669.00
2019-02-26T06:08:07.820Z,650.83
2019-02-26T06:10:39.468Z,612.80
2019-02-26T06:13:13.545Z,658.63
2019-02-26T06:15:44.221Z,611.10
2019-02-26T06:18:15.867Z,703.63
2019-02-26T06:20:48.547Z,695.27
2019-02-26T06:23:20.456Z,687.27
2019-02-26T06:25:55.174Z,702.37
2019-02-26T06:28:25.761Z,702.77
2019-02-26T06:30:57.502Z,690.00
2019-02-26T06:33:31.685Z,711.40
2019-02-26T06:36:04.138Z,715.00
2019-02-26T06:38:35.035Z,673.10
2019-02-26T06:41:06.895Z,747.37
2019-02-26T06:43:39.950Z,746.87
2019-02-26T06:46:12.323Z,733.07
2019-02-26T06:48:43.750Z,764.73
2019-02-26T06:51:15.107Z,754.53
2019-02-26T06:53:49.214Z,763.13
2019-02-26T06:56:19.185Z,781.53
2019-02-26T06:58:50.424Z,753.63
2019-02-26T07:01:21.626Z,756.97
2019-02-26T07:03:53.864Z,785.93
2019-02-26T07:06:27.308Z,767.87
2019-02-26T07:08:58.473Z,775.10
2019-02-26T07:11:31.461Z,781.87
2019-02-26T07:14:05.439Z,771.30
2019-02-26T07:16:39.790Z,756.07
2019-02-26T07:19:11.547Z,777.07
2019-02-26T07:21:45.388Z,754.37
2019-02-26T07:24:18.073Z,778.23
2019-02-26T07:26:48.731Z,781.03
2019-02-26T07:29:20.105Z,807.33
2019-02-26T07:31:51.895Z,784.53
2019-02-26T07:34:26.841Z,817.07
2019-02-26T07:36:57.874Z,834.70
2019-02-26T07:39:29.105Z,828.77
2019-02-26T07:42:00.249Z,822.73
2019-02-26T07:44:31.409Z,777.70
2019-02-26T07:47:06.158Z,801.33
2019-02-26T07:49:37.063Z,780.43
2019-02-26T07:52:08.876Z,805.53
2019-02-26T07:54:42.219Z,806.97
2019-02-26T07:57:12.869Z,844.47
2019-02-26T07:59:45.140Z,827.87
2019-02-26T08:02:17.593Z,821.83
2019-02-26T08:04:48.770Z,864.00
2019-02-26T08:07:21.406Z,848.87
2019-02-26T08:09:53.222Z,837.50
2019-02-26T08:12:24.364Z,787.27
2019-02-26T08:14:56.072Z,820.03
2019-02-26T08:17:27.180Z,786.03
2019-02-26T08:20:01.625Z,807.60
2019-02-26T08:22:34.558Z,791.27
2019-02-26T08:25:06.487Z,784.00
2019-02-26T08:27:37.925Z,793.37
2019-02-26T08:30:20.176Z,810.97
2019-02-26T08:32:53.564Z,849.23
2019-02-26T08:35:23.479Z,803.63
2019-02-26T08:37:54.624Z,830.80
2019-02-26T08:40:25.819Z,809.47
2019-02-26T08:42:56.933Z,832.30
2019-02-26T08:45:31.865Z,828.30
2019-02-26T08:48:02.940Z,827.10
2019-02-26T08:50:36.169Z,816.97
2019-02-26T08:53:08.664Z,808.27
2019-02-26T08:55:40.934Z,803.77
2019-02-26T08:58:13.086Z,786.40
2019-02-26T09:00:44.289Z,769.00
2019-02-26T09:03:17.737Z,762.30
2019-02-26T09:05:49.422Z,783.73
2019-02-26T09:08:22.178Z,807.60
2019-02-26T09:10:53.896Z,738.83
2019-02-26T09:13:26.777Z,767.23
2019-02-26T09:16:01.062Z,768.23
2019-02-26T09:18:35.524Z,771.73
2019-02-26T09:21:07.087Z,757.20
2019-02-26T09:23:38.397Z,758.53
2019-02-26T09:26:09.585Z,761.17
2019-02-26T09:28:40.721Z,748.50
2019-02-26T09:31:14.198Z,739.67
2019-02-26T09:33:45.719Z,738.93
2019-02-26T09:36:21.018Z,765.80
2019-02-26T09:38:51.803Z,757.17
2019-02-26T09:41:23.875Z,719.20
2019-02-26T09:43:55.109Z,723.37
2019-02-26T09:46:26.939Z,745.50
2019-02-26T09:49:00.935Z,718.53
2019-02-26T09:51:33.080Z,757.10
2019-02-26T09:54:04.659Z,771.73
2019-02-26T09:56:36.118Z,758.00
2019-02-26T09:59:09.657Z,777.87
2019-02-26T10:01:40.874Z,751.33
2019-02-26T10:04:14.214Z,736.23
2019-02-26T10:06:47.532Z,756.43
2019-02-26T10:09:20.713Z,759.40
2019-02-26T10:11:52.769Z,747.33
2019-02-26T10:14:26.959Z,832.47
2019-02-26T10:16:57.693Z,911.80
2019-02-26T10:19:30.956Z,947.77
2019-02-26T10:22:03.562Z,919.40
2019-02-26T10:24:37.246Z,868.60
2019-02-26T10:27:10.908Z,999.37
2019-02-26T10:29:42.942Z,872.90
2019-02-26T10:32:14.108Z,865.53
2019-02-26T10:34:45.612Z,909.17
2019-02-26T10:37:17.168Z,951.17
2019-02-26T10:39:49.755Z,996.57
2019-02-26T10:42:21.859Z,994.63
2019-02-26T10:44:53.355Z,999.90
2019-02-26T10:47:25.496Z,999.90
2019-02-26T10:49:58.634Z,991.23
2019-02-26T10:52:30.523Z,999.90
2019-02-26T10:55:01.983Z,999.90
2019-02-26T10:57:35.734Z,999.90
2019-02-26T11:00:12.403Z,999.90
2019-02-26T11:02:46.020Z,986.30
2019-02-26T11:05:20.793Z,999.90
2019-02-26T11:07:52.541Z,927.40
2019-02-26T11:10:25.242Z,863.93
2019-02-26T11:12:59.420Z,897.73
2019-02-26T11:15:33.919Z,790.20
2019-02-26T11:18:04.638Z,546.17
2019-02-26T11:20:37.207Z,640.07
2019-02-26T11:23:11.136Z,692.90
2019-02-26T11:25:42.087Z,667.23
2019-02-26T11:28:13.300Z,599.90
2019-02-26T11:30:46.504Z,655.87
2019-02-26T11:33:17.425Z,616.03
2019-02-26T11:35:49.471Z,639.47
2019-02-26T11:38:22.324Z,645.53
2019-02-26T11:40:54.566Z,717.77
2019-02-26T11:43:28.924Z,620.33
2019-02-26T11:46:03.927Z,653.43
2019-02-26T11:48:35.487Z,689.53
2019-02-26T11:51:07.511Z,654.73
2019-02-26T11:53:39.659Z,680.83
2019-02-26T11:56:13.038Z,620.43
2019-02-26T11:58:43.967Z,620.03
2019-02-26T12:01:16.657Z,633.67
2019-02-26T12:03:48.149Z,618.37
2019-02-26T12:06:19.463Z,629.10
2019-02-26T12:08:51.112Z,691.73
2019-02-26T12:11:23.258Z,650.70
2019-02-26T12:13:54.830Z,637.17
2019-02-26T12:16:28.433Z,694.70
2019-02-26T12:19:01.316Z,679.50
2019-02-26T12:21:32.764Z,648.80
2019-02-26T12:24:06.628Z,691.73
2019-02-26T12:26:39.292Z,723.43
2019-02-26T12:29:10.511Z,746.70
2019-02-26T12:31:41.617Z,741.13
2019-02-26T12:34:14.605Z,900.73
2019-02-26T12:36:48.164Z,942.50
2019-02-26T12:39:21.415Z,998.50
2019-02-26T12:41:52.001Z,922.27
2019-02-26T12:44:23.536Z,877.17
2019-02-26T12:46:56.832Z,833.93
2019-02-26T12:49:29.400Z,877.13
2019-02-26T12:52:03.339Z,903.50
2019-02-26T12:54:37.798Z,902.27
2019-02-26T12:57:07.468Z,905.33
2019-02-26T12:59:39.143Z,885.83
2019-02-26T13:02:13.933Z,886.80
2019-02-26T13:04:47.252Z,888.10
2019-02-26T13:07:17.132Z,882.77
2019-02-26T13:09:51.965Z,896.03
2019-02-26T13:12:23.910Z,883.93
2019-02-26T13:14:55.686Z,880.70
2019-02-26T13:17:29.458Z,883.47
2019-02-26T13:20:01.910Z,883.27
2019-02-26T13:22:32.662Z,911.33
2019-02-26T13:25:09.661Z,953.73
2019-02-26T13:27:38.765Z,918.37
2019-02-26T13:30:14.308Z,852.17
2019-02-26T13:33:04.252Z,794.17
2019-02-26T13:35:18.312Z,530.70
2019-02-26T13:37:51.347Z,627.97
2019-02-26T13:40:23.461Z,585.37
2019-02-26T13:45:28.386Z,511.07
2019-02-26T13:48:01.353Z,449.07
2019-02-26T13:50:32.486Z,382.87
2019-02-26T13:53:03.591Z,53.13
2019-02-26T13:55:36.100Z,52.67
2019-02-26T13:58:11.798Z,27.03
2019-02-26T14:00:40.763Z,59.43
2019-02-26T14:03:13.363Z,23.40
2019-02-26T14:05:46.512Z,25.03
2019-02-26T14:08:18.243Z,25.93
2019-02-26T14:10:49.845Z,25.97
2019-02-26T14:13:21.454Z,27.60
2019-02-26T14:15:54.888Z,26.67
2019-02-26T14:18:26.916Z,33.07
2019-02-26T14:20:59.008Z,30.70
2019-02-26T14:23:34.970Z,38.53
2019-02-26T14:26:04.456Z,49.27
2019-02-26T14:28:35.627Z,42.40
2019-02-26T14:31:07.695Z,28.43
2019-02-26T14:33:39.202Z,24.30
2019-02-26T14:36:11.900Z,22.43
2019-02-26T14:38:43.207Z,21.97
2019-02-26T14:41:14.405Z,22.77
2019-02-26T14:43:45.859Z,28.23
2019-02-26T14:46:17.042Z,27.23
2019-02-26T14:48:49.028Z,22.60
2019-02-26T14:51:20.551Z,24.87
2019-02-26T14:53:51.991Z,23.53
2019-02-26T14:56:25.028Z,24.33
2019-02-26T14:58:56.020Z,21.97
2019-02-26T15:01:27.270Z,24.50
2019-02-26T15:03:58.747Z,23.67
2019-02-26T15:06:29.892Z,24.33
2019-02-26T15:09:01.088Z,27.97
2019-02-26T15:11:32.671Z,21.63
2019-02-26T15:14:04.567Z,21.63
2019-02-26T15:16:36.287Z,21.73
2019-02-26T15:19:07.724Z,20.67
2019-02-26T15:21:38.848Z,21.70
2019-02-26T15:24:10.295Z,21.27
2019-02-26T15:26:41.491Z,20.20
2019-02-26T15:29:12.659Z,20.67
2019-02-26T15:31:44.641Z,20.80
2019-02-26T15:34:15.785Z,21.27
2019-02-26T15:36:48.056Z,22.57
2019-02-26T15:39:19.304Z,22.23
2019-02-26T15:41:52.673Z,22.27
2019-02-26T15:44:26.026Z,22.77
2019-02-26T15:46:57.107Z,22.03
2019-02-26T15:49:28.264Z,23.47
2019-02-26T15:51:59.431Z,22.43
2019-02-26T15:54:30.889Z,24.33
2019-02-26T15:57:02.092Z,31.07
2019-02-26T15:59:35.263Z,62.20
2019-02-26T16:02:06.464Z,71.63
2019-02-26T16:04:38.942Z,82.93
2019-02-26T16:07:11.485Z,99.60
2019-02-26T16:09:42.609Z,999.90
2019-02-26T16:12:14.031Z,330.03
2019-02-26T16:14:45.123Z,238.93
2019-02-26T16:17:18.570Z,266.47
2019-02-26T16:19:52.962Z,276.03
2019-02-26T16:22:24.970Z,278.73
2019-02-26T16:24:56.151Z,335.83
2019-02-26T16:27:28.222Z,334.70
2019-02-26T16:30:00.702Z,298.00
2019-02-26T16:32:31.948Z,289.47
2019-02-26T16:35:04.013Z,280.07
2019-02-26T16:37:35.780Z,999.90
2019-02-26T16:40:08.119Z,949.93
2019-02-26T16:42:39.209Z,898.37
2019-02-26T16:45:15.030Z,129.03
2019-02-26T16:47:48.731Z,129.43
2019-02-26T16:50:22.827Z,153.42
2019-02-26T16:52:54.119Z,93.63
2019-02-26T16:55:25.395Z,76.47
2019-02-26T16:57:57.051Z,70.77
2019-02-26T17:00:28.740Z,49.93
2019-02-26T17:03:01.231Z,51.43
2019-02-26T17:05:32.826Z,44.03
2019-02-26T17:08:05.155Z,186.00
2019-02-26T17:10:39.115Z,827.08
2019-02-26T17:13:11.858Z,113.70
2019-02-26T17:15:43.897Z,103.83
2019-02-26T17:18:16.211Z,65.07
2019-02-26T17:20:47.565Z,66.97
2019-02-26T17:23:20.042Z,59.20
2019-02-26T17:25:51.173Z,558.53
2019-02-26T17:28:22.669Z,694.00
2019-02-26T17:30:57.418Z,677.53
2019-02-26T17:33:27.826Z,558.53
2019-02-26T17:35:59.549Z,523.27
2019-02-26T17:38:31.786Z,587.60
2019-02-26T17:41:02.917Z,554.13
2019-02-26T17:43:34.108Z,595.90
2019-02-26T17:46:07.857Z,549.17
2019-02-26T17:48:43.424Z,507.57
2019-02-26T17:51:18.780Z,444.13
2019-02-26T17:53:47.822Z,480.07
2019-02-26T17:56:19.326Z,461.53
2019-02-26T17:58:51.195Z,530.43
2019-02-26T18:01:22.765Z,470.80
2019-02-26T18:03:54.289Z,377.70
2019-02-26T18:06:25.902Z,429.17
2019-02-26T18:08:57.521Z,417.37
2019-02-26T18:11:29.065Z,439.57
2019-02-26T18:14:00.769Z,372.33
2019-02-26T18:16:34.404Z,405.33
2019-02-26T18:19:05.460Z,365.73
2019-02-26T18:21:37.124Z,348.57
2019-02-26T18:24:08.732Z,347.03
2019-02-26T18:26:40.210Z,333.10
2019-02-26T18:29:11.875Z,304.37
2019-02-26T18:31:43.434Z,323.37
2019-02-26T18:34:14.962Z,300.17
2019-02-26T18:36:46.703Z,310.97
2019-02-26T18:39:22.329Z,305.27
2019-02-26T18:41:53.271Z,309.57
2019-02-26T18:44:24.420Z,290.20
2019-02-26T18:46:55.785Z,277.67
2019-02-26T18:49:27.118Z,279.60
2019-02-26T18:51:58.616Z,263.83
2019-02-26T18:54:30.473Z,266.03
2019-02-26T18:57:01.909Z,272.30
2019-02-26T18:59:33.374Z,287.70
2019-02-26T19:02:04.983Z,280.63
2019-02-26T19:04:36.488Z,252.03
2019-02-26T19:07:22.127Z,266.83
2019-02-26T19:09:54.116Z,265.63
2019-02-26T19:12:33.330Z,246.33
2019-02-26T19:15:14.807Z,248.30
2019-02-26T19:17:50.470Z,248.93
2019-02-26T19:20:25.434Z,233.53
2019-02-26T19:22:58.753Z,237.33
2019-02-26T19:25:31.614Z,223.57
2019-02-26T19:28:03.203Z,221.90
2019-02-26T19:30:36.794Z,222.27
2019-02-26T19:33:07.762Z,218.73
2019-02-26T19:35:42.129Z,219.07
2019-02-26T19:38:13.890Z,219.20
2019-02-26T19:40:45.547Z,217.70
2019-02-26T19:43:17.815Z,209.23
2019-02-26T19:45:50.515Z,198.77
2019-02-26T19:48:33.868Z,201.33
2019-02-26T19:51:04.332Z,184.30
2019-02-26T19:53:36.001Z,174.97
2019-02-26T19:56:07.581Z,169.90
2019-02-26T19:58:41.011Z,195.73
2019-02-26T20:01:12.481Z,198.23
2019-02-26T20:03:43.932Z,175.43
2019-02-26T20:06:15.447Z,176.83
2019-02-26T20:08:49.588Z,174.40
2019-02-26T20:11:22.846Z,160.10
2019-02-26T20:14:04.497Z,149.13
2019-02-26T20:16:30.625Z,139.40
2019-02-26T20:19:04.459Z,114.60
2019-02-26T20:21:36.075Z,100.40
2019-02-26T20:24:08.248Z,99.10
2019-02-26T20:26:47.658Z,91.63
2019-02-26T20:29:19.371Z,91.87
2019-02-26T20:31:55.401Z,93.83
2019-02-26T20:34:28.813Z,84.87
2019-02-26T20:37:01.930Z,78.47
2019-02-26T20:39:34.116Z,83.50
2019-02-26T20:42:06.513Z,81.73
2019-02-26T20:47:55.882Z,62.30
2019-02-26T20:50:31.215Z,77.13
2019-02-26T20:53:16.959Z,78.53
2019-02-26T20:55:52.705Z,64.00
2019-02-26T20:58:25.512Z,65.77
2019-02-26T21:00:59.317Z,66.90
2019-02-26T21:03:31.079Z,81.97
2019-02-26T21:06:02.877Z,102.77
2019-02-26T21:08:34.428Z,85.73
2019-02-26T21:11:06.044Z,71.57
2019-02-26T21:13:38.123Z,59.90
2019-02-26T21:16:11.531Z,67.67
2019-02-26T21:18:44.738Z,61.00
2019-02-26T21:21:16.782Z,54.63
2019-02-26T21:23:48.557Z,63.97
2019-02-26T21:26:20.356Z,50.07
2019-02-26T21:28:52.029Z,51.03
2019-02-26T21:31:24.218Z,48.40
2019-02-26T21:33:56.322Z,49.37
2019-02-26T21:36:28.448Z,44.93
2019-02-26T21:39:00.153Z,42.37
2019-02-26T21:41:34.239Z,46.17
2019-02-26T21:44:08.780Z,40.90
2019-02-26T21:46:39.073Z,40.17
2019-02-26T21:49:10.799Z,41.07
2019-02-26T21:51:42.340Z,41.47
2019-02-26T21:54:14.039Z,37.10
2019-02-26T21:56:48.661Z,36.47
2019-02-26T21:59:19.122Z,35.90
2019-02-26T22:01:50.874Z,35.00
2019-02-26T22:04:22.852Z,35.50
2019-02-26T22:06:54.797Z,30.13
2019-02-26T22:09:29.908Z,29.23
2019-02-26T22:11:59.783Z,32.27
2019-02-26T22:14:36.863Z,30.93
2019-02-26T22:17:07.714Z,31.90
2019-02-26T22:19:40.219Z,27.60
2019-02-26T22:22:12.547Z,25.53
2019-02-26T22:24:46.152Z,25.93
2019-02-26T22:27:18.002Z,25.37
2019-02-26T22:29:49.790Z,24.77
2019-02-26T22:32:21.621Z,23.87
2019-02-26T22:34:53.564Z,23.27
2019-02-26T22:37:26.088Z,24.53
2019-02-26T22:39:57.650Z,23.40
2019-02-26T22:42:29.280Z,23.40
2019-02-26T22:45:03.221Z,24.03
2019-02-26T22:47:40.246Z,23.80
2019-02-26T22:50:10.510Z,24.13
2019-02-26T22:52:42.463Z,24.63
2019-02-26T22:55:16.503Z,24.40
2019-02-26T22:57:47.537Z,25.60
2019-02-26T23:01:11.814Z,27.10
2019-02-26T23:03:45.916Z,23.70
2019-02-26T23:06:17.285Z,22.70
2019-02-26T23:08:49.225Z,22.73
2019-02-26T23:11:21.107Z,23.13
2019-02-26T23:13:52.916Z,23.10
2019-02-26T23:16:24.557Z,24.20
2019-02-26T23:18:56.341Z,24.57
2019-02-26T23:21:28.535Z,25.40
2019-02-26T23:24:00.111Z,25.37
2019-02-26T23:26:31.763Z,25.10
2019-02-26T23:29:03.422Z,24.73
2019-02-26T23:31:35.254Z,24.70
2019-02-26T23:34:07.133Z,25.50
2019-02-26T23:36:38.796Z,24.87
2019-02-26T23:39:14.844Z,24.93
2019-02-26T23:41:46.572Z,24.70
2019-02-26T23:44:18.675Z,25.33
2019-02-26T23:46:50.318Z,24.70
2019-02-26T23:49:22.073Z,24.67
2019-02-26T23:51:54.579Z,25.00
2019-02-26T23:54:26.283Z,25.33
2019-02-26T23:56:57.629Z,24.40
2019-02-26T23:59:28.907Z,25.13
